sensor_id;sensor_type;location;lat;lon;timestamp;pressure;altitude;pressure_sealevel;temperature;humidity
76166;BME280;65085;46.718;20.136;2022-12-29T00:02:30;101556.38;;;0.70;80.35
76166;BME280;65085;46.718;20.136;2022-12-29T00:05:34;101553.47;;;0.67;81.07
76166;BME280;65085;46.718;20.136;2022-12-29T00:08:37;101559.09;;;0.65;80.79
76166;BME280;65085;46.718;20.136;2022-12-29T00:11:44;101555.28;;;0.71;80.88
76166;BME280;65085;46.718;20.136;2022-12-29T00:14:46;101557.69;;;0.73;80.54
76166;BME280;65085;46.718;20.136;2022-12-29T00:18:08;101558.34;;;0.60;80.82
76166;BME280;65085;46.718;20.136;2022-12-29T00:21:14;101559.19;;;0.84;79.98
76166;BME280;65085;46.718;20.136;2022-12-29T00:24:35;101556.63;;;0.74;80.30
76166;BME280;65085;46.718;20.136;2022-12-29T00:27:57;101556.94;;;0.67;80.30
76166;BME280;65085;46.718;20.136;2022-12-29T00:31:19;101553.00;;;0.60;81.20
76166;BME280;65085;46.718;20.136;2022-12-29T00:34:40;101550.66;;;0.53;81.65
76166;BME280;65085;46.718;20.136;2022-12-29T00:38:06;101551.91;;;0.61;80.36
76166;BME280;65085;46.718;20.136;2022-12-29T00:41:28;101552.72;;;0.61;80.45
76166;BME280;65085;46.718;20.136;2022-12-29T00:44:49;101552.50;;;0.58;81.10
76166;BME280;65085;46.718;20.136;2022-12-29T00:47:52;101550.09;;;0.56;80.76
76166;BME280;65085;46.718;20.136;2022-12-29T00:50:55;101554.19;;;0.49;81.08
76166;BME280;65085;46.718;20.136;2022-12-29T00:54:00;101547.78;;;0.45;81.60
76166;BME280;65085;46.718;20.136;2022-12-29T00:57:03;101558.25;;;0.41;81.48
76166;BME280;65085;46.718;20.136;2022-12-29T01:00:07;101558.59;;;0.30;81.22
76166;BME280;65085;46.718;20.136;2022-12-29T01:03:10;101546.28;;;0.34;81.93
76166;BME280;65085;46.718;20.136;2022-12-29T01:06:14;101554.72;;;0.46;81.40
76166;BME280;65085;46.718;20.136;2022-12-29T01:09:18;101549.97;;;0.38;81.91
76166;BME280;65085;46.718;20.136;2022-12-29T01:12:39;101553.59;;;0.18;82.13
76166;BME280;65085;46.718;20.136;2022-12-29T01:15:49;101557.94;;;0.14;81.89
76166;BME280;65085;46.718;20.136;2022-12-29T01:18:53;101560.94;;;0.08;82.46
76166;BME280;65085;46.718;20.136;2022-12-29T01:21:56;101549.09;;;0.14;82.01
76166;BME280;65085;46.718;20.136;2022-12-29T01:25:00;101537.34;;;0.15;82.30
76166;BME280;65085;46.718;20.136;2022-12-29T01:28:03;101542.38;;;0.21;81.82
76166;BME280;65085;46.718;20.136;2022-12-29T01:31:07;101538.38;;;0.24;82.05
76166;BME280;65085;46.718;20.136;2022-12-29T01:34:11;101523.16;;;0.19;81.89
76166;BME280;65085;46.718;20.136;2022-12-29T01:37:15;101529.75;;;0.32;81.43
76166;BME280;65085;46.718;20.136;2022-12-29T01:40:20;101528.13;;;0.31;81.80
76166;BME280;65085;46.718;20.136;2022-12-29T01:43:38;101525.75;;;0.29;81.46
76166;BME280;65085;46.718;20.136;2022-12-29T01:46:43;101520.16;;;0.26;81.75
76166;BME280;65085;46.718;20.136;2022-12-29T01:49:48;101510.69;;;0.10;82.90
76166;BME280;65085;46.718;20.136;2022-12-29T01:52:56;101526.41;;;0.11;82.16
76166;BME280;65085;46.718;20.136;2022-12-29T01:56:04;101521.75;;;0.27;81.84
76166;BME280;65085;46.718;20.136;2022-12-29T01:59:11;101517.50;;;0.26;81.44
76166;BME280;65085;46.718;20.136;2022-12-29T02:02:16;101514.38;;;0.14;82.38
76166;BME280;65085;46.718;20.136;2022-12-29T02:05:24;101515.97;;;0.15;81.54
76166;BME280;65085;46.718;20.136;2022-12-29T02:08:29;101510.94;;;0.08;82.00
76166;BME280;65085;46.718;20.136;2022-12-29T02:11:35;101509.72;;;-0.04;82.48
76166;BME280;65085;46.718;20.136;2022-12-29T02:14:38;101509.69;;;0.01;82.43
76166;BME280;65085;46.718;20.136;2022-12-29T02:18:15;101502.16;;;0.08;82.40
76166;BME280;65085;46.718;20.136;2022-12-29T02:21:48;101501.19;;;-0.06;82.76
76166;BME280;65085;46.718;20.136;2022-12-29T02:25:09;101498.28;;;-0.09;82.90
76166;BME280;65085;46.718;20.136;2022-12-29T02:32:03;101488.63;;;-0.06;82.83
76166;BME280;65085;46.718;20.136;2022-12-29T02:35:15;101499.13;;;-0.14;83.21
76166;BME280;65085;46.718;20.136;2022-12-29T02:38:31;101499.13;;;-0.14;82.67
76166;BME280;65085;46.718;20.136;2022-12-29T02:41:44;101495.38;;;-0.18;83.65
76166;BME280;65085;46.718;20.136;2022-12-29T02:44:55;101491.09;;;-0.14;83.52
76166;BME280;65085;46.718;20.136;2022-12-29T02:48:04;101492.66;;;-0.08;82.91
76166;BME280;65085;46.718;20.136;2022-12-29T02:51:15;101487.59;;;-0.09;82.57
76166;BME280;65085;46.718;20.136;2022-12-29T02:54:22;101484.84;;;0.00;82.81
76166;BME280;65085;46.718;20.136;2022-12-29T02:57:44;101490.53;;;-0.11;83.35
76166;BME280;65085;46.718;20.136;2022-12-29T03:00:56;101486.84;;;-0.15;82.96
76166;BME280;65085;46.718;20.136;2022-12-29T03:04:19;101491.34;;;-0.10;83.06
76166;BME280;65085;46.718;20.136;2022-12-29T03:07:34;101498.53;;;-0.06;82.95
76166;BME280;65085;46.718;20.136;2022-12-29T03:10:46;101501.19;;;-0.06;82.43
76166;BME280;65085;46.718;20.136;2022-12-29T03:13:59;101486.84;;;-0.15;82.68
76166;BME280;65085;46.718;20.136;2022-12-29T03:17:26;101494.06;;;-0.20;83.60
76166;BME280;65085;46.718;20.136;2022-12-29T03:20:39;101484.66;;;-0.08;83.22
76166;BME280;65085;46.718;20.136;2022-12-29T03:23:45;101495.63;;;-0.09;82.92
76166;BME280;65085;46.718;20.136;2022-12-29T03:26:53;101495.03;;;-0.07;82.97
76166;BME280;65085;46.718;20.136;2022-12-29T03:30:00;101502.28;;;-0.07;82.52
76166;BME280;65085;46.718;20.136;2022-12-29T03:33:08;101489.66;;;-0.02;82.41
76166;BME280;65085;46.718;20.136;2022-12-29T03:36:18;101480.38;;;-0.09;82.13
76166;BME280;65085;46.718;20.136;2022-12-29T03:39:25;101485.69;;;-0.04;82.58
76166;BME280;65085;46.718;20.136;2022-12-29T03:42:30;101485.94;;;-0.06;82.18
76166;BME280;65085;46.718;20.136;2022-12-29T03:45:35;101484.97;;;-0.14;82.81
76166;BME280;65085;46.718;20.136;2022-12-29T03:48:38;101476.69;;;-0.13;82.91
76166;BME280;65085;46.718;20.136;2022-12-29T03:51:43;101486.84;;;-0.15;82.63
76166;BME280;65085;46.718;20.136;2022-12-29T03:54:47;101479.03;;;-0.07;82.47
76166;BME280;65085;46.718;20.136;2022-12-29T03:57:50;101481.41;;;0.00;82.05
76166;BME280;65085;46.718;20.136;2022-12-29T04:00:59;101471.22;;;0.02;82.38
76166;BME280;65085;46.718;20.136;2022-12-29T04:04:04;101484.25;;;0.08;81.86
76166;BME280;65085;46.718;20.136;2022-12-29T04:07:08;101481.56;;;0.08;82.34
76166;BME280;65085;46.718;20.136;2022-12-29T04:10:11;101478.13;;;0.08;81.66
76166;BME280;65085;46.718;20.136;2022-12-29T04:13:14;101480.25;;;0.06;82.44
76166;BME280;65085;46.718;20.136;2022-12-29T04:16:18;101478.63;;;0.10;81.94
76166;BME280;65085;46.718;20.136;2022-12-29T04:19:21;101481.56;;;0.08;81.99
76166;BME280;65085;46.718;20.136;2022-12-29T04:22:26;101475.56;;;-0.07;82.96
76166;BME280;65085;46.718;20.136;2022-12-29T04:25:30;101474.72;;;-0.03;82.47
76166;BME280;65085;46.718;20.136;2022-12-29T04:28:34;101481.16;;;-0.03;82.98
76166;BME280;65085;46.718;20.136;2022-12-29T04:31:46;101479.50;;;0.00;82.32
76166;BME280;65085;46.718;20.136;2022-12-29T04:34:49;101472.53;;;0.04;83.05
76166;BME280;65085;46.718;20.136;2022-12-29T04:37:54;101461.28;;;0.07;82.64
76166;BME280;65085;46.718;20.136;2022-12-29T04:40:59;101465.13;;;-0.03;83.17
76166;BME280;65085;46.718;20.136;2022-12-29T04:44:02;101472.84;;;-0.02;83.04
76166;BME280;65085;46.718;20.136;2022-12-29T04:47:23;101468.84;;;-0.05;83.25
76166;BME280;65085;46.718;20.136;2022-12-29T04:50:38;101477.41;;;-0.03;83.46
76166;BME280;65085;46.718;20.136;2022-12-29T04:53:51;101469.78;;;0.14;83.25
76166;BME280;65085;46.718;20.136;2022-12-29T04:56:54;101472.19;;;0.16;82.87
76166;BME280;65085;46.718;20.136;2022-12-29T04:59:57;101470.34;;;0.40;82.40
76166;BME280;65085;46.718;20.136;2022-12-29T05:03:00;101471.31;;;0.49;81.84
76166;BME280;65085;46.718;20.136;2022-12-29T05:06:04;101476.81;;;0.34;82.76
76166;BME280;65085;46.718;20.136;2022-12-29T05:09:08;101462.75;;;0.47;82.08
76166;BME280;65085;46.718;20.136;2022-12-29T05:12:11;101461.41;;;0.49;81.38
76166;BME280;65085;46.718;20.136;2022-12-29T05:15:22;101477.03;;;0.37;82.19
76166;BME280;65085;46.718;20.136;2022-12-29T05:18:25;101479.03;;;0.22;82.52
76166;BME280;65085;46.718;20.136;2022-12-29T05:21:29;101479.63;;;0.19;82.33
76166;BME280;65085;46.718;20.136;2022-12-29T05:24:34;101480.94;;;0.21;83.28
76166;BME280;65085;46.718;20.136;2022-12-29T05:27:37;101468.94;;;0.19;82.91
76166;BME280;65085;46.718;20.136;2022-12-29T05:30:58;101480.72;;;0.13;83.17
76166;BME280;65085;46.718;20.136;2022-12-29T05:34:02;101476.22;;;0.08;83.46
76166;BME280;65085;46.718;20.136;2022-12-29T05:37:06;101478.38;;;0.06;83.28
76166;BME280;65085;46.718;20.136;2022-12-29T05:40:11;101485.84;;;0.09;83.15
76166;BME280;65085;46.718;20.136;2022-12-29T05:43:14;101474.03;;;0.15;83.07
76166;BME280;65085;46.718;20.136;2022-12-29T05:46:40;101474.31;;;0.14;82.72
76166;BME280;65085;46.718;20.136;2022-12-29T05:49:50;101471.50;;;0.00;84.08
76166;BME280;65085;46.718;20.136;2022-12-29T05:53:05;101463.47;;;0.00;84.03
76166;BME280;65085;46.718;20.136;2022-12-29T05:56:09;101468.22;;;0.08;83.46
76166;BME280;65085;46.718;20.136;2022-12-29T05:59:12;101466.91;;;0.06;83.13
76166;BME280;65085;46.718;20.136;2022-12-29T06:02:16;101463.13;;;0.12;83.46
76166;BME280;65085;46.718;20.136;2022-12-29T06:05:19;101469.88;;;0.04;83.59
76166;BME280;65085;46.718;20.136;2022-12-29T06:08:21;101462.91;;;0.03;83.56
76166;BME280;65085;46.718;20.136;2022-12-29T06:11:26;101472.47;;;0.09;83.74
76166;BME280;65085;46.718;20.136;2022-12-29T06:14:31;101466.34;;;0.09;83.46
76166;BME280;65085;46.718;20.136;2022-12-29T06:17:35;101466.13;;;0.05;83.73
76166;BME280;65085;46.718;20.136;2022-12-29T06:20:38;101458.97;;;-0.04;84.60
76166;BME280;65085;46.718;20.136;2022-12-29T06:23:44;101466.16;;;0.00;84.29
76166;BME280;65085;46.718;20.136;2022-12-29T06:26:48;101456.97;;;0.11;83.56
76166;BME280;65085;46.718;20.136;2022-12-29T06:29:52;101454.25;;;0.16;84.05
76166;BME280;65085;46.718;20.136;2022-12-29T06:32:55;101462.09;;;0.08;83.89
76166;BME280;65085;46.718;20.136;2022-12-29T06:35:59;101461.25;;;0.12;83.78
76166;BME280;65085;46.718;20.136;2022-12-29T06:39:02;101460.22;;;0.03;84.17
76166;BME280;65085;46.718;20.136;2022-12-29T06:42:08;101469.88;;;0.04;84.18
76166;BME280;65085;46.718;20.136;2022-12-29T06:45:23;101463.69;;;0.09;84.21
76166;BME280;65085;46.718;20.136;2022-12-29T06:48:26;101465.13;;;0.25;83.49
76166;BME280;65085;46.718;20.136;2022-12-29T06:51:28;101464.16;;;0.16;84.26
76166;BME280;65085;46.718;20.136;2022-12-29T06:54:31;101470.56;;;0.15;83.32
76166;BME280;65085;46.718;20.136;2022-12-29T06:57:35;101470.97;;;0.32;83.45
76166;BME280;65085;46.718;20.136;2022-12-29T07:00:38;101458.81;;;0.44;82.84
76166;BME280;65085;46.718;20.136;2022-12-29T07:03:42;101450.78;;;0.44;82.20
76166;BME280;65085;46.718;20.136;2022-12-29T07:06:45;101454.25;;;0.45;82.15
76166;BME280;65085;46.718;20.136;2022-12-29T07:09:48;101474.31;;;0.42;83.40
76166;BME280;65085;46.718;20.136;2022-12-29T07:12:52;101466.25;;;0.47;83.10
76166;BME280;65085;46.718;20.136;2022-12-29T07:15:55;101471.44;;;0.62;82.66
76166;BME280;65085;46.718;20.136;2022-12-29T07:18:58;101475.47;;;0.83;82.08
76166;BME280;65085;46.718;20.136;2022-12-29T07:22:02;101470.00;;;1.35;79.99
76166;BME280;65085;46.718;20.136;2022-12-29T07:25:05;101477.63;;;1.65;78.69
76166;BME280;65085;46.718;20.136;2022-12-29T07:28:10;101469.69;;;1.92;77.78
76166;BME280;65085;46.718;20.136;2022-12-29T07:31:14;101462.47;;;2.38;76.05
76166;BME280;65085;46.718;20.136;2022-12-29T07:34:18;101468.19;;;2.64;74.97
76166;BME280;65085;46.718;20.136;2022-12-29T07:37:21;101460.63;;;2.93;73.63
76166;BME280;65085;46.718;20.136;2022-12-29T07:40:24;101466.34;;;3.27;72.59
76166;BME280;65085;46.718;20.136;2022-12-29T07:43:28;101470.59;;;3.41;71.50
76166;BME280;65085;46.718;20.136;2022-12-29T07:46:53;101455.25;;;3.77;70.69
76166;BME280;65085;46.718;20.136;2022-12-29T07:50:00;101450.84;;;4.03;69.42
76166;BME280;65085;46.718;20.136;2022-12-29T07:53:03;101452.19;;;4.36;68.25
76166;BME280;65085;46.718;20.136;2022-12-29T07:56:06;101457.50;;;4.58;67.63
76166;BME280;65085;46.718;20.136;2022-12-29T07:59:10;101438.34;;;4.98;66.53
76166;BME280;65085;46.718;20.136;2022-12-29T08:02:14;101448.38;;;5.40;65.18
76166;BME280;65085;46.718;20.136;2022-12-29T08:05:17;101446.66;;;5.44;64.87
76166;BME280;65085;46.718;20.136;2022-12-29T08:08:20;101453.34;;;5.64;63.96
76166;BME280;65085;46.718;20.136;2022-12-29T08:11:23;101451.41;;;6.07;62.97
76166;BME280;65085;46.718;20.136;2022-12-29T08:14:27;101450.41;;;6.28;62.72
76166;BME280;65085;46.718;20.136;2022-12-29T08:17:30;101438.00;;;6.82;59.89
76166;BME280;65085;46.718;20.136;2022-12-29T08:20:33;101439.69;;;6.94;60.29
76166;BME280;65085;46.718;20.136;2022-12-29T08:23:35;101438.34;;;7.29;58.72
76166;BME280;65085;46.718;20.136;2022-12-29T08:26:38;101440.94;;;7.46;58.46
76166;BME280;65085;46.718;20.136;2022-12-29T08:29:42;101443.69;;;7.79;57.60
76166;BME280;65085;46.718;20.136;2022-12-29T08:32:45;101430.97;;;8.12;57.02
76166;BME280;65085;46.718;20.136;2022-12-29T08:35:48;101440.13;;;7.87;57.33
76166;BME280;65085;46.718;20.136;2022-12-29T08:39:09;101439.38;;;8.19;56.45
76166;BME280;65085;46.718;20.136;2022-12-29T08:42:12;101438.34;;;8.80;55.18
76166;BME280;65085;46.718;20.136;2022-12-29T08:45:16;101433.81;;;9.20;53.52
76166;BME280;65085;46.718;20.136;2022-12-29T08:48:19;101438.19;;;9.12;54.05
76166;BME280;65085;46.718;20.136;2022-12-29T08:51:24;101430.88;;;9.01;54.43
76166;BME280;65085;46.718;20.136;2022-12-29T08:54:27;101431.84;;;9.72;52.51
76166;BME280;65085;46.718;20.136;2022-12-29T08:57:30;101437.38;;;10.15;51.60
76166;BME280;65085;46.718;20.136;2022-12-29T09:00:52;101446.13;;;9.69;52.47
76166;BME280;65085;46.718;20.136;2022-12-29T09:03:55;101451.34;;;8.30;56.64
76166;BME280;65085;46.718;20.136;2022-12-29T09:07:18;101443.44;;;8.25;57.49
76166;BME280;65085;46.718;20.136;2022-12-29T09:10:21;101439.75;;;7.35;60.25
76166;BME280;65085;46.718;20.136;2022-12-29T09:13:24;101435.75;;;7.12;61.30
76166;BME280;65085;46.718;20.136;2022-12-29T09:16:28;101431.16;;;6.84;62.92
76166;BME280;65085;46.718;20.136;2022-12-29T09:19:31;101430.03;;;6.56;64.40
76166;BME280;65085;46.718;20.136;2022-12-29T09:22:34;101427.88;;;6.33;65.39
76166;BME280;65085;46.718;20.136;2022-12-29T09:25:37;101425.88;;;6.04;66.84
76166;BME280;65085;46.718;20.136;2022-12-29T09:28:40;101410.19;;;5.89;67.30
76166;BME280;65085;46.718;20.136;2022-12-29T09:31:44;101417.34;;;5.51;69.32
76166;BME280;65085;46.718;20.136;2022-12-29T09:34:47;101416.19;;;5.78;68.82
76166;BME280;65085;46.718;20.136;2022-12-29T09:37:49;101407.66;;;6.01;68.36
76166;BME280;65085;46.718;20.136;2022-12-29T09:40:55;101414.50;;;6.82;65.43
76166;BME280;65085;46.718;20.136;2022-12-29T09:44:08;101412.44;;;7.28;64.27
76166;BME280;65085;46.718;20.136;2022-12-29T09:47:17;101402.94;;;7.84;61.46
76166;BME280;65085;46.718;20.136;2022-12-29T09:50:24;101396.19;;;7.69;62.48
76166;BME280;65085;46.718;20.136;2022-12-29T09:53:31;101395.75;;;7.67;62.72
76166;BME280;65085;46.718;20.136;2022-12-29T09:56:38;101389.66;;;8.47;60.66
76166;BME280;65085;46.718;20.136;2022-12-29T09:59:42;101382.78;;;8.86;59.28
76166;BME280;65085;46.718;20.136;2022-12-29T10:02:50;101380.13;;;9.25;57.53
76166;BME280;65085;46.718;20.136;2022-12-29T10:06:01;101377.47;;;9.01;58.09
76166;BME280;65085;46.718;20.136;2022-12-29T10:09:13;101378.94;;;8.99;58.65
76166;BME280;65085;46.718;20.136;2022-12-29T10:12:23;101375.59;;;9.29;57.71
76166;BME280;65085;46.718;20.136;2022-12-29T10:15:38;101377.06;;;9.66;55.93
76166;BME280;65085;46.718;20.136;2022-12-29T10:19:03;101373.31;;;9.86;55.88
76166;BME280;65085;46.718;20.136;2022-12-29T10:22:17;101372.81;;;10.39;55.05
76166;BME280;65085;46.718;20.136;2022-12-29T10:25:26;101377.44;;;11.19;52.96
76166;BME280;65085;46.718;20.136;2022-12-29T10:28:37;101376.84;;;11.10;52.69
76166;BME280;65085;46.718;20.136;2022-12-29T10:31:44;101376.69;;;11.95;50.71
76166;BME280;65085;46.718;20.136;2022-12-29T10:34:53;101376.69;;;12.17;49.94
76166;BME280;65085;46.718;20.136;2022-12-29T10:37:59;101360.47;;;11.26;53.15
76166;BME280;65085;46.718;20.136;2022-12-29T10:41:11;101365.06;;;12.43;49.98
76166;BME280;65085;46.718;20.136;2022-12-29T10:44:18;101354.06;;;12.88;48.94
76166;BME280;65085;46.718;20.136;2022-12-29T10:47:26;101350.69;;;13.20;48.16
76166;BME280;65085;46.718;20.136;2022-12-29T10:50:33;101351.91;;;12.03;51.14
76166;BME280;65085;46.718;20.136;2022-12-29T10:53:40;101343.28;;;11.22;53.78
76166;BME280;65085;46.718;20.136;2022-12-29T10:56:47;101331.31;;;10.73;55.85
76166;BME280;65085;46.718;20.136;2022-12-29T10:59:54;101329.72;;;10.22;57.48
76166;BME280;65085;46.718;20.136;2022-12-29T11:03:27;101325.28;;;9.71;59.29
76166;BME280;65085;46.718;20.136;2022-12-29T11:06:39;101322.06;;;9.54;60.54
76166;BME280;65085;46.718;20.136;2022-12-29T11:09:44;101314.78;;;9.42;61.14
76166;BME280;65085;46.718;20.136;2022-12-29T11:12:57;101314.38;;;9.28;62.19
76166;BME280;65085;46.718;20.136;2022-12-29T11:16:00;101313.78;;;9.07;63.75
76166;BME280;65085;46.718;20.136;2022-12-29T11:19:05;101301.59;;;8.89;64.27
76166;BME280;65085;46.718;20.136;2022-12-29T11:22:22;101301.97;;;8.88;64.70
76166;BME280;65085;46.718;20.136;2022-12-29T11:25:26;101305.38;;;8.73;65.44
76166;BME280;65085;46.718;20.136;2022-12-29T11:28:29;101302.81;;;8.52;66.27
76166;BME280;65085;46.718;20.136;2022-12-29T11:31:40;101299.28;;;8.52;66.75
76166;BME280;65085;46.718;20.136;2022-12-29T11:34:43;101289.38;;;8.44;66.88
76166;BME280;65085;46.718;20.136;2022-12-29T11:37:56;101284.41;;;8.22;68.06
76166;BME280;65085;46.718;20.136;2022-12-29T11:41:02;101270.09;;;8.21;68.09
76166;BME280;65085;46.718;20.136;2022-12-29T11:44:05;101264.09;;;8.16;68.77
76166;BME280;65085;46.718;20.136;2022-12-29T11:47:11;101258.09;;;8.10;68.92
76166;BME280;65085;46.718;20.136;2022-12-29T11:50:17;101256.41;;;8.18;68.89
76166;BME280;65085;46.718;20.136;2022-12-29T11:53:49;101253.03;;;7.97;69.63
76166;BME280;65085;46.718;20.136;2022-12-29T11:56:54;101260.56;;;7.91;69.96
76166;BME280;65085;46.718;20.136;2022-12-29T11:59:58;101277.69;;;7.83;70.70
76166;BME280;65085;46.718;20.136;2022-12-29T12:03:04;101269.78;;;7.66;71.32
76166;BME280;65085;46.718;20.136;2022-12-29T12:06:12;101279.03;;;7.77;70.92
76166;BME280;65085;46.718;20.136;2022-12-29T12:09:23;101269.13;;;7.81;71.23
76166;BME280;65085;46.718;20.136;2022-12-29T12:12:30;101254.47;;;7.94;71.05
76166;BME280;65085;46.718;20.136;2022-12-29T12:15:39;101255.97;;;8.04;70.58
76166;BME280;65085;46.718;20.136;2022-12-29T12:18:51;101240.06;;;8.02;70.66
76166;BME280;65085;46.718;20.136;2022-12-29T12:22:00;101232.06;;;8.06;70.35
76166;BME280;65085;46.718;20.136;2022-12-29T12:25:12;101219.22;;;8.03;70.99
76166;BME280;65085;46.718;20.136;2022-12-29T12:28:21;101225.97;;;7.97;70.99
76166;BME280;65085;46.718;20.136;2022-12-29T12:31:42;101232.28;;;7.89;71.13
76166;BME280;65085;46.718;20.136;2022-12-29T12:34:47;101215.94;;;7.85;71.40
76166;BME280;65085;46.718;20.136;2022-12-29T12:38:03;101217.75;;;7.81;71.48
76166;BME280;65085;46.718;20.136;2022-12-29T12:41:11;101220.91;;;7.83;71.65
76166;BME280;65085;46.718;20.136;2022-12-29T12:44:28;101219.44;;;7.98;71.05
76166;BME280;65085;46.718;20.136;2022-12-29T12:47:45;101221.13;;;8.02;71.27
76166;BME280;65085;46.718;20.136;2022-12-29T12:51:00;101219.09;;;7.99;71.79
76166;BME280;65085;46.718;20.136;2022-12-29T12:54:18;101226.88;;;8.13;71.56
76166;BME280;65085;46.718;20.136;2022-12-29T12:57:34;101226.09;;;8.00;72.17
76166;BME280;65085;46.718;20.136;2022-12-29T13:01:00;101224.28;;;8.04;72.17
76166;BME280;65085;46.718;20.136;2022-12-29T13:07:52;101225.97;;;8.09;72.29
76166;BME280;65085;46.718;20.136;2022-12-29T13:11:02;101237.19;;;8.19;72.01
76166;BME280;65085;46.718;20.136;2022-12-29T13:14:24;101240.84;;;8.03;72.48
76166;BME280;65085;46.718;20.136;2022-12-29T13:17:34;101237.47;;;8.06;72.87
76166;BME280;65085;46.718;20.136;2022-12-29T13:20:46;101232.97;;;8.10;72.55
76166;BME280;65085;46.718;20.136;2022-12-29T13:23:57;101230.38;;;8.01;73.10
76166;BME280;65085;46.718;20.136;2022-12-29T13:27:11;101235.09;;;7.92;73.82
76166;BME280;65085;46.718;20.136;2022-12-29T13:30:20;101228.03;;;8.00;73.50
76166;BME280;65085;46.718;20.136;2022-12-29T13:33:27;101218.31;;;7.99;73.67
76166;BME280;65085;46.718;20.136;2022-12-29T13:36:36;101212.09;;;7.86;74.02
76166;BME280;65085;46.718;20.136;2022-12-29T13:39:43;101222.59;;;7.88;74.04
76166;BME280;65085;46.718;20.136;2022-12-29T13:42:48;101211.56;;;7.93;73.95
76166;BME280;65085;46.718;20.136;2022-12-29T13:45:58;101212.91;;;7.87;74.43
76166;BME280;65085;46.718;20.136;2022-12-29T13:49:06;101215.63;;;7.75;75.10
76166;BME280;65085;46.718;20.136;2022-12-29T13:52:14;101215.94;;;7.73;75.51
76166;BME280;65085;46.718;20.136;2022-12-29T13:55:26;101208.50;;;7.82;75.51
76166;BME280;65085;46.718;20.136;2022-12-29T13:58:33;101212.53;;;7.76;75.59
76166;BME280;65085;46.718;20.136;2022-12-29T14:01:40;101215.94;;;7.73;75.85
76166;BME280;65085;46.718;20.136;2022-12-29T14:04:57;101218.19;;;7.71;76.36
76166;BME280;65085;46.718;20.136;2022-12-29T14:08:02;101212.66;;;7.80;76.06
76166;BME280;65085;46.718;20.136;2022-12-29T14:11:08;101206.59;;;7.83;75.97
76166;BME280;65085;46.718;20.136;2022-12-29T14:14:18;101206.13;;;7.81;76.16
76166;BME280;65085;46.718;20.136;2022-12-29T14:17:25;101209.28;;;7.71;76.86
76166;BME280;65085;46.718;20.136;2022-12-29T14:20:28;101201.50;;;7.57;77.52
76166;BME280;65085;46.718;20.136;2022-12-29T14:23:38;101189.22;;;7.72;77.00
76166;BME280;65085;46.718;20.136;2022-12-29T14:26:44;101200.25;;;7.55;77.51
76166;BME280;65085;46.718;20.136;2022-12-29T14:29:49;101193.94;;;7.63;77.74
76166;BME280;65085;46.718;20.136;2022-12-29T14:33:12;101205.56;;;7.63;77.56
76166;BME280;65085;46.718;20.136;2022-12-29T14:36:20;101191.13;;;7.59;77.68
76166;BME280;65085;46.718;20.136;2022-12-29T14:39:31;101192.69;;;7.60;77.86
76166;BME280;65085;46.718;20.136;2022-12-29T14:42:34;101195.31;;;7.69;77.91
76166;BME280;65085;46.718;20.136;2022-12-29T14:45:40;101191.38;;;7.66;78.09
76166;BME280;65085;46.718;20.136;2022-12-29T14:48:45;101197.44;;;7.63;78.43
76166;BME280;65085;46.718;20.136;2022-12-29T14:51:51;101196.75;;;7.78;77.75
76166;BME280;65085;46.718;20.136;2022-12-29T14:54:56;101202.66;;;7.80;77.89
76166;BME280;65085;46.718;20.136;2022-12-29T14:58:01;101193.84;;;7.83;77.66
76166;BME280;65085;46.718;20.136;2022-12-29T15:01:17;101188.75;;;7.82;77.85
76166;BME280;65085;46.718;20.136;2022-12-29T15:04:26;101189.78;;;7.77;78.00
76166;BME280;65085;46.718;20.136;2022-12-29T15:07:32;101193.75;;;7.68;78.50
76166;BME280;65085;46.718;20.136;2022-12-29T15:10:40;101191.69;;;7.53;79.21
76166;BME280;65085;46.718;20.136;2022-12-29T15:13:45;101187.06;;;7.53;79.38
76166;BME280;65085;46.718;20.136;2022-12-29T15:16:52;101186.41;;;7.56;79.38
76166;BME280;65085;46.718;20.136;2022-12-29T15:19:58;101190.00;;;7.48;79.55
76166;BME280;65085;46.718;20.136;2022-12-29T15:23:04;101189.53;;;7.46;79.81
76166;BME280;65085;46.718;20.136;2022-12-29T15:26:11;101186.81;;;7.34;80.01
76166;BME280;65085;46.718;20.136;2022-12-29T15:29:34;101191.28;;;7.30;80.84
76166;BME280;65085;46.718;20.136;2022-12-29T15:32:40;101194.53;;;7.24;81.19
76166;BME280;65085;46.718;20.136;2022-12-29T15:35:50;101198.34;;;7.11;81.83
76166;BME280;65085;46.718;20.136;2022-12-29T15:38:54;101193.22;;;6.97;82.50
76166;BME280;65085;46.718;20.136;2022-12-29T15:42:03;101196.78;;;6.89;82.02
76166;BME280;65085;46.718;20.136;2022-12-29T15:45:10;101200.16;;;6.87;81.52
76166;BME280;65085;46.718;20.136;2022-12-29T15:48:17;101192.63;;;6.92;83.14
76166;BME280;65085;46.718;20.136;2022-12-29T15:51:27;101196.28;;;6.96;81.69
76166;BME280;65085;46.718;20.136;2022-12-29T15:54:31;101193.06;;;6.82;81.96
76166;BME280;65085;46.718;20.136;2022-12-29T15:57:41;101195.31;;;6.80;81.75
76166;BME280;65085;46.718;20.136;2022-12-29T16:01:03;101182.53;;;7.01;83.37
76166;BME280;65085;46.718;20.136;2022-12-29T16:04:07;101190.44;;;7.06;83.16
76166;BME280;65085;46.718;20.136;2022-12-29T16:07:25;101185.94;;;7.10;83.60
76166;BME280;65085;46.718;20.136;2022-12-29T16:10:32;101191.44;;;7.01;82.28
76166;BME280;65085;46.718;20.136;2022-12-29T16:13:39;101196.00;;;7.21;82.44
76166;BME280;65085;46.718;20.136;2022-12-29T16:16:44;101204.59;;;7.23;82.58
76166;BME280;65085;46.718;20.136;2022-12-29T16:19:49;101202.16;;;7.10;82.05
76166;BME280;65085;46.718;20.136;2022-12-29T16:22:55;101206.00;;;6.88;82.75
76166;BME280;65085;46.718;20.136;2022-12-29T16:25:59;101206.69;;;6.86;82.49
76166;BME280;65085;46.718;20.136;2022-12-29T16:29:05;101207.00;;;6.84;82.70